Ana Sayfa
METAR-TAF:

METAR-TAF

Havaalanları :

Brownwood, Teksas, Amerika Birleşik Devletleri

Enlem: 31-48N, Boylam: 098-57W, yükseklik: 422 m

Güncel hava durumu gözlemi

Rapor saat 20:35 UTC de 34 dakika önce yapıldı.
Rüzgar güneybatıdan 8 kt
Sıcaklık 30°C
Nem 62%
Basınç 1011 hPa
Görüş mesafesi: 16.1 km
3700 ft yükseklikte az bulutlu
7000 ft yükseklikte çok bulutlu

METAR: KBWD 162035Z AUTO 22008KT 10SM FEW037 OVC070 30/22 A2984 RMK AO1

Saat: 16:09 (21:09 UTC)


TAF: eksik

4.000'den fazla havaalanı için hava durumu gözlemleri ve tahminleri (METAR ve TAF raporları).

Kullanılabilir istasyonlar harita üzerinde sarı ve kırmızı noktalarla gösterilir.

İstasyonun adını görmek için fareyi noktanın üzerinde gezdirin.

Sonrasında hava gözlem ve tahminlerini görmek için tıklayın.

Haritayı değiştirmek için: yaklaştırmak için siyah artı işaretli yeşil düğmeye ve uzaklaştırmak için de eksi işaretli düğmeye hızla tıklayın; bitişik haritalar için yeşil okları kullanın.


METAR-TAF: